Time;durP1;ratioP1;P1;durP2;ratioP2;P2;SDS_P1;SDS_P2;PMS_P1;PMS_P2;Temp;Humidity;BMP_temperature;BMP_pressure;BME280_temperature;BME280_humidity;BME280_pressure;Samples;Min_cycle;Max_cycle;Signal;HPM_P1;HPM_P2
2023/01/19 00:01:46;;;;;;;5.68;1.00;;;3.60;99.90;;;;;;5097704;28;20052;-90
2023/01/19 00:04:15;;;;;;;6.03;1.05;;;3.50;99.90;;;;;;5098556;28;20127;-94
2023/01/19 00:06:43;;;;;;;3.95;0.90;;;2.40;99.90;;;;;;5098609;28;20048;-86
2023/01/19 00:09:09;;;;;;;9.25;1.08;;;3.60;99.90;;;;;;5084960;28;20048;-87
2023/01/19 00:11:38;;;;;;;2.58;0.85;;;3.30;99.90;;;;;;5100131;28;20093;-92
2023/01/19 00:14:06;;;;;;;6.88;0.95;;;3.70;99.90;;;;;;5102782;28;20080;-88
2023/01/19 00:16:34;;;;;;;7.22;1.15;;;3.00;99.90;;;;;;5087945;28;20051;-95
2023/01/19 00:19:00;;;;;;;6.43;1.15;;;3.50;99.90;;;;;;5086277;28;20048;-95
2023/01/19 00:21:26;;;;;;;6.72;0.70;;;3.40;99.90;;;;;;5103280;28;20039;-95
2023/01/19 00:23:51;;;;;;;6.03;0.70;;;3.30;99.90;;;;;;5104073;28;20040;-96
2023/01/19 00:26:19;;;;;;;5.93;0.95;;;3.20;99.90;;;;;;5041657;28;20056;-95
2023/01/19 00:28:45;;;;;;;5.03;0.80;;;3.40;99.90;;;;;;5024237;28;20116;-95
2023/01/19 00:31:11;;;;;;;6.68;1.05;;;3.20;99.90;;;;;;5041606;28;20111;-95
2023/01/19 00:33:38;;;;;;;3.13;0.70;;;3.40;99.90;;;;;;5041111;28;20045;-92
2023/01/19 00:36:05;;;;;;;3.28;0.60;;;1.60;99.90;;;;;;5039700;28;20530;-87
2023/01/19 00:38:37;;;;;;;7.43;0.70;;;2.50;99.90;;;;;;5041799;28;20051;-93
2023/01/19 00:41:07;;;;;;;6.47;1.20;;;3.50;99.90;;;;;;5041499;28;20064;-96
2023/01/19 00:43:54;;;;;;;3.00;0.82;;;3.20;99.90;;;;;;5057407;28;20088;-88
2023/01/19 00:46:19;;;;;;;5.45;0.82;;;3.60;99.90;;;;;;5041925;28;20055;-91
2023/01/19 00:48:45;;;;;;;4.65;0.98;;;3.20;99.90;;;;;;5054870;28;20139;-93
2023/01/19 00:51:17;;;;;;;2.92;1.20;;;3.20;99.90;;;;;;5076322;28;20044;-90
2023/01/19 00:53:44;;;;;;;7.65;0.98;;;3.10;99.90;;;;;;5046715;28;20108;-95
2023/01/19 00:56:10;;;;;;;5.15;0.90;;;2.30;99.90;;;;;;5071883;28;20047;-95
2023/01/19 00:58:36;;;;;;;8.38;1.08;;;3.70;99.90;;;;;;5084420;28;20074;-91
2023/01/19 01:01:03;;;;;;;2.83;0.50;;;3.10;99.90;;;;;;5066818;28;20051;-88
2023/01/19 01:03:33;;;;;;;4.50;0.70;;;2.70;99.90;;;;;;5065989;28;20075;-91
2023/01/19 01:05:59;;;;;;;7.75;0.60;;;1.90;99.90;;;;;;5083071;28;20141;-95
2023/01/19 01:08:25;;;;;;;2.50;0.68;;;3.60;99.90;;;;;;5086017;28;20051;-87
2023/01/19 01:10:53;;;;;;;3.47;0.63;;;3.20;99.90;;;;;;5083881;28;20058;-92
2023/01/19 01:13:19;;;;;;;7.10;1.00;;;2.60;99.90;;;;;;5067438;28;20055;-88
2023/01/19 01:15:49;;;;;;;5.30;0.80;;;3.50;99.90;;;;;;5085327;28;20078;-91
2023/01/19 01:18:18;;;;;;;8.07;1.27;;;3.90;99.90;;;;;;5103059;28;20051;-93
2023/01/19 01:20:49;;;;;;;9.48;0.88;;;2.80;99.90;;;;;;5122229;28;20054;-88
2023/01/19 01:23:30;;;;;;;6.20;0.90;;;3.60;99.90;;;;;;5108723;28;20181;-91
2023/01/19 01:25:56;;;;;;;8.73;0.88;;;2.80;99.90;;;;;;5120224;28;20058;-94
2023/01/19 01:28:21;;;;;;;5.07;0.88;;;3.70;99.90;;;;;;5120937;28;20047;-91
2023/01/19 01:30:56;;;;;;;7.85;0.98;;;3.70;99.90;;;;;;5125253;28;20112;-93
2023/01/19 01:33:23;;;;;;;7.57;1.00;;;2.70;99.90;;;;;;5117554;28;20063;-88
2023/01/19 01:35:50;;;;;;;3.92;0.93;;;3.80;99.90;;;;;;5103720;28;20077;-90
2023/01/19 01:38:19;;;;;;;9.23;1.23;;;3.90;99.90;;;;;;5122172;28;20051;-96
2023/01/19 01:40:54;;;;;;;7.88;0.88;;;2.70;99.90;;;;;;5102930;28;20039;-92
2023/01/19 01:43:48;;;;;;;6.30;0.93;;;2.90;99.90;;;;;;5121404;28;20044;-96
2023/01/19 01:46:19;;;;;;;6.05;1.35;;;3.20;99.90;;;;;;5104429;28;20036;-94
2023/01/19 01:49:13;;;;;;;6.07;2.17;;;3.60;99.90;;;;;;5118010;28;20055;-91
2023/01/19 01:51:47;;;;;;;5.75;1.85;;;3.80;99.90;;;;;;5120276;27;20059;-95
2023/01/19 01:54:24;;;;;;;11.38;2.40;;;3.70;99.90;;;;;;5129926;27;20046;-90
2023/01/19 01:56:54;;;;;;;4.93;2.10;;;3.80;99.90;;;;;;5164614;27;20046;-92
2023/01/19 01:59:47;;;;;;;4.55;2.42;;;3.20;99.90;;;;;;5142762;27;20046;-92
2023/01/19 02:05:35;;;;;;;6.63;2.72;;;2.80;99.90;;;;;;5143288;27;19965;-89
2023/01/19 02:14:04;;;;;;;10.27;3.00;;;3.40;99.90;;;;;;5117402;28;20050;-91
2023/01/19 02:16:30;;;;;;;6.13;2.70;;;2.70;99.90;;;;;;5084290;28;20052;-94
2023/01/19 02:19:17;;;;;;;8.13;2.80;;;3.70;99.90;;;;;;5103141;28;20047;-92
2023/01/19 02:22:01;;;;;;;7.75;2.70;;;2.50;99.90;;;;;;5100984;28;20043;-92
2023/01/19 02:24:32;;;;;;;5.82;2.95;;;2.60;99.90;;;;;;5116089;27;20046;-96
2023/01/19 02:27:01;;;;;;;4.20;2.30;;;2.60;99.90;;;;;;5143006;27;20473;-92
2023/01/19 02:29:39;;;;;;;6.00;2.53;;;3.10;99.90;;;;;;5143001;27;20055;-91
2023/01/19 02:32:07;;;;;;;6.43;2.80;;;2.40;99.90;;;;;;5126478;27;20054;-93
2023/01/19 02:34:34;;;;;;;4.95;2.45;;;2.60;99.90;;;;;;5125954;27;20583;-94
2023/01/19 02:37:11;;;;;;;5.80;2.30;;;3.30;99.90;;;;;;5140775;27;20107;-88
2023/01/19 02:40:07;;;;;;;5.68;2.75;;;2.60;99.90;;;;;;5142260;27;20046;-94
2023/01/19 02:42:38;;;;;;;;;;;2.60;99.90;;;;;;5043008;28;20060;-93
2023/01/19 02:45:05;;;;;;;5.68;2.50;;;3.40;99.90;;;;;;5017052;28;20021;-94
2023/01/19 02:47:46;;;;;;;5.53;2.28;;;2.60;99.90;;;;;;5021180;28;20057;-91
2023/01/19 02:50:44;;;;;;;4.68;2.40;;;3.50;99.90;;;;;;5020003;28;20045;-92
2023/01/19 02:53:59;;;;;;;6.47;2.67;;;3.40;99.90;;;;;;5018958;28;20056;-90
2023/01/19 02:56:45;;;;;;;3.78;2.47;;;1.70;99.90;;;;;;4941030;29;20062;-92
2023/01/19 02:59:32;;;;;;;4.95;2.65;;;2.50;99.90;;;;;;4957206;29;20101;-93
2023/01/19 03:02:29;;;;;;;5.22;2.70;;;2.40;99.90;;;;;;4932252;29;20031;-88
2023/01/19 03:05:39;;;;;;;6.55;2.70;;;2.50;99.90;;;;;;4955719;29;20138;-92
2023/01/19 03:08:23;;;;;;;5.13;2.47;;;2.50;99.90;;;;;;4954532;29;20055;-92
2023/01/19 03:11:13;;;;;;;5.57;2.60;;;2.30;99.90;;;;;;4939166;29;20150;-92
2023/01/19 03:13:42;;;;;;;12.55;3.00;;;3.70;99.90;;;;;;4907492;29;20068;-90
2023/01/19 03:16:15;;;;;;;3.97;2.15;;;3.40;99.90;;;;;;4939871;29;20479;-93
2023/01/19 03:18:45;;;;;;;7.45;2.40;;;2.40;99.90;;;;;;4972854;28;20060;-90
2023/01/19 03:21:13;;;;;;;4.85;2.40;;;3.00;99.90;;;;;;5027479;28;20099;-87
2023/01/19 03:23:42;;;;;;;5.35;2.20;;;3.60;99.90;;;;;;5021227;28;20062;-91
2023/01/19 03:26:12;;;;;;;8.38;2.70;;;3.10;99.90;;;;;;5035294;28;20083;-94
2023/01/19 03:28:41;;;;;;;5.47;2.55;;;3.50;99.90;;;;;;5030886;28;20056;-87
2023/01/19 03:31:14;;;;;;;8.10;3.17;;;3.70;99.90;;;;;;5132285;27;20058;-86
2023/01/19 03:33:45;;;;;;;7.32;2.75;;;3.80;99.90;;;;;;5139200;27;20050;-93
2023/01/19 03:36:34;;;;;;;4.88;2.20;;;3.20;99.90;;;;;;5124011;27;20043;-96
2023/01/19 03:39:02;;;;;;;5.95;2.55;;;2.50;99.90;;;;;;5120052;27;20038;-96
2023/01/19 03:41:31;;;;;;;4.80;2.28;;;3.40;99.90;;;;;;5135734;27;20046;-91
2023/01/19 03:43:57;;;;;;;6.63;2.25;;;2.40;99.90;;;;;;5102526;27;20047;-94
2023/01/19 03:46:24;;;;;;;8.00;2.40;;;3.00;99.90;;;;;;5126499;27;20075;-93
2023/01/19 03:48:51;;;;;;;11.20;2.90;;;2.50;99.90;;;;;;5112282;27;20404;-94
2023/01/19 03:51:18;;;;;;;6.68;2.10;;;2.60;99.90;;;;;;5137556;27;20042;-93
2023/01/19 03:53:45;;;;;;;7.80;2.00;;;3.30;99.90;;;;;;5117894;27;20051;-95
2023/01/19 03:56:22;;;;;;;7.93;2.63;;;2.90;99.90;;;;;;5145083;27;20034;-95
2023/01/19 03:58:48;;;;;;;4.25;1.80;;;3.60;99.90;;;;;;5121426;27;20086;-94
2023/01/19 04:01:15;;;;;;;6.15;2.00;;;3.60;99.90;;;;;;5126917;28;20083;-91
2023/01/19 04:03:42;;;;;;;5.03;1.40;;;3.90;99.90;;;;;;5116036;28;20046;-92
2023/01/19 04:06:09;;;;;;;3.85;1.50;;;3.20;99.90;;;;;;5119534;28;20132;-90
2023/01/19 04:08:37;;;;;;;4.75;1.42;;;3.30;99.90;;;;;;5133474;28;20050;-95
2023/01/19 04:11:03;;;;;;;6.20;1.23;;;3.40;99.90;;;;;;5115234;28;20035;-89
2023/01/19 04:13:29;;;;;;;4.82;1.17;;;2.60;99.90;;;;;;5105232;28;20053;-90
2023/01/19 04:16:03;;;;;;;3.17;1.00;;;4.00;99.90;;;;;;5115146;28;20054;-88
2023/01/19 04:18:30;;;;;;;8.85;1.17;;;3.40;99.90;;;;;;5119020;28;20087;-90
2023/01/19 04:20:59;;;;;;;8.90;1.15;;;2.50;99.90;;;;;;5133046;28;20035;-94
2023/01/19 04:23:25;;;;;;;5.95;1.08;;;3.60;99.90;;;;;;5098006;27;20053;-91
2023/01/19 04:25:57;;;;;;;3.83;1.05;;;3.50;99.90;;;;;;5097330;28;20047;-93
2023/01/19 04:28:22;;;;;;;5.53;1.33;;;3.60;99.90;;;;;;5081133;28;20108;-87
2023/01/19 04:30:51;;;;;;;3.30;1.13;;;3.40;99.90;;;;;;5116067;28;20040;-91
2023/01/19 04:33:18;;;;;;;4.03;0.90;;;3.30;99.90;;;;;;5110438;27;20405;-95
2023/01/19 04:35:44;;;;;;;3.55;1.05;;;3.70;99.90;;;;;;5122054;27;20078;-92
2023/01/19 04:38:10;;;;;;;3.28;1.25;;;3.70;99.90;;;;;;5157651;27;20099;-90
2023/01/19 04:40:36;;;;;;;4.47;1.30;;;3.60;99.90;;;;;;5155615;27;20050;-88
2023/01/19 04:43:01;;;;;;;6.55;1.30;;;2.70;99.90;;;;;;5116876;27;20043;-91
2023/01/19 04:45:29;;;;;;;3.05;0.90;;;3.40;99.90;;;;;;5102356;27;20039;-89
2023/01/19 04:47:58;;;;;;;9.02;0.95;;;3.40;99.90;;;;;;5139053;27;20043;-86
2023/01/19 04:50:23;;;;;;;6.15;1.05;;;2.50;99.90;;;;;;5121598;27;20398;-95
2023/01/19 04:52:50;;;;;;;8.95;0.90;;;3.40;99.90;;;;;;5108195;28;20135;-88
2023/01/19 04:55:15;;;;;;;7.93;1.02;;;2.60;99.90;;;;;;5097158;28;20062;-91
2023/01/19 04:57:42;;;;;;;3.85;0.75;;;3.90;99.90;;;;;;5101647;28;20040;-87
2023/01/19 05:00:10;;;;;;;4.15;1.00;;;3.10;99.90;;;;;;5102180;28;20039;-86
2023/01/19 05:02:36;;;;;;;6.43;0.70;;;2.70;99.90;;;;;;5101263;28;20044;-93
2023/01/19 05:05:03;;;;;;;4.75;0.70;;;3.20;99.90;;;;;;5098957;28;20114;-88
2023/01/19 05:07:29;;;;;;;2.97;0.70;;;2.80;99.90;;;;;;5097989;28;20119;-94
2023/01/19 05:09:55;;;;;;;6.00;0.63;;;3.60;99.90;;;;;;5082097;28;20457;-93
2023/01/19 05:12:20;;;;;;;2.30;0.50;;;3.30;99.90;;;;;;5101235;28;20063;-86
2023/01/19 05:14:46;;;;;;;2.53;0.50;;;2.70;99.90;;;;;;5121689;28;20075;-89
2023/01/19 05:17:13;;;;;;;4.00;0.63;;;4.10;99.90;;;;;;5102932;28;20097;-88
2023/01/19 05:19:42;;;;;;;4.15;0.47;;;3.30;99.90;;;;;;5100506;28;20044;-90
2023/01/19 05:22:29;;;;;;;5.05;0.38;;;3.70;99.90;;;;;;5085831;28;20475;-84
2023/01/19 05:24:56;;;;;;;2.10;0.40;;;2.60;99.90;;;;;;5103521;28;20040;-90
2023/01/19 05:27:21;;;;;;;5.50;0.47;;;3.40;99.90;;;;;;5085196;28;20078;-87
2023/01/19 05:29:47;;;;;;;3.13;0.40;;;3.60;99.90;;;;;;5081233;28;20048;-93
2023/01/19 05:32:19;;;;;;;4.07;0.47;;;3.00;99.90;;;;;;5098425;28;20046;-91
2023/01/19 05:34:45;;;;;;;6.45;0.75;;;2.50;99.90;;;;;;5099457;28;20044;-95
2023/01/19 05:37:10;;;;;;;6.97;0.65;;;3.70;99.90;;;;;;5099394;28;20036;-95
2023/01/19 05:39:37;;;;;;;5.13;0.55;;;3.10;99.90;;;;;;5099866;28;20040;-86
2023/01/19 05:42:04;;;;;;;3.95;0.50;;;3.30;99.90;;;;;;5104016;28;20043;-89
2023/01/19 05:44:32;;;;;;;9.68;0.90;;;2.60;99.90;;;;;;5122791;28;20047;-93
2023/01/19 05:46:58;;;;;;;6.00;0.57;;;3.20;99.90;;;;;;5095341;28;20526;-92
2023/01/19 05:49:24;;;;;;;6.40;0.50;;;3.60;99.90;;;;;;5075912;28;20058;-96
2023/01/19 05:51:50;;;;;;;5.72;0.70;;;3.80;99.90;;;;;;5061649;28;20052;-96
2023/01/19 05:54:15;;;;;;;7.13;1.60;;;3.40;99.90;;;;;;5069828;28;20048;-91
2023/01/19 05:56:42;;;;;;;5.57;0.70;;;3.50;99.90;;;;;;5098459;28;20078;-87
2023/01/19 05:59:09;;;;;;;6.80;0.70;;;2.70;99.90;;;;;;5077658;28;20553;-91
2023/01/19 06:01:37;;;;;;;3.80;0.75;;;2.50;99.90;;;;;;5057869;28;20056;-94
2023/01/19 06:04:03;;;;;;;8.68;1.17;;;3.70;99.90;;;;;;5041018;28;20060;-91
2023/01/19 06:06:29;;;;;;;9.60;1.20;;;3.80;99.90;;;;;;5076891;28;20055;-95
2023/01/19 06:08:54;;;;;;;10.38;1.17;;;2.40;99.90;;;;;;5057349;28;20447;-96
2023/01/19 06:11:21;;;;;;;8.52;1.75;;;2.50;99.90;;;;;;5057063;28;20171;-88
2023/01/19 06:13:47;;;;;;;12.20;1.20;;;3.60;99.90;;;;;;5040435;28;20125;-96
2023/01/19 06:16:13;;;;;;;11.98;1.35;;;2.50;99.90;;;;;;5073134;28;20044;-92
2023/01/19 06:18:39;;;;;;;6.20;1.05;;;3.30;99.90;;;;;;5090977;28;20070;-91
2023/01/19 06:21:06;;;;;;;7.50;1.35;;;3.20;99.90;;;;;;5079779;28;20072;-89
2023/01/19 06:23:34;;;;;;;9.45;1.13;;;3.30;99.90;;;;;;5095159;28;20046;-86
2023/01/19 06:26:00;;;;;;;8.35;1.08;;;3.60;99.90;;;;;;5078086;28;20052;-95
2023/01/19 06:28:26;;;;;;;4.30;0.73;;;2.30;99.90;;;;;;5076874;28;20059;-95
2023/01/19 06:30:55;;;;;;;14.60;1.42;;;2.20;99.90;;;;;;5094855;28;20058;-92
2023/01/19 06:33:22;;;;;;;8.63;1.30;;;3.30;99.90;;;;;;5097852;28;20119;-96
2023/01/19 06:35:49;;;;;;;11.88;1.30;;;2.90;99.90;;;;;;5099769;28;20715;-87
2023/01/19 06:38:17;;;;;;;12.27;1.00;;;3.30;99.90;;;;;;5086442;28;20048;-93
2023/01/19 06:40:43;;;;;;;10.55;1.80;;;3.00;99.90;;;;;;5105726;28;20028;-93
2023/01/19 06:43:19;;;;;;;11.13;1.38;;;2.40;99.90;;;;;;5098979;28;20097;-85
2023/01/19 06:45:49;;;;;;;9.85;1.52;;;2.50;99.90;;;;;;5108217;28;20039;-90
2023/01/19 06:48:33;;;;;;;12.88;1.00;;;3.30;99.90;;;;;;5091639;28;20048;-96
2023/01/19 06:51:18;;;;;;;9.30;1.00;;;2.40;99.90;;;;;;5105995;28;20070;-87
2023/01/19 06:53:45;;;;;;;7.78;1.73;;;3.20;99.90;;;;;;5128564;27;20051;-86
2023/01/19 06:56:17;;;;;;;17.95;1.42;;;3.30;99.90;;;;;;5144181;27;20051;-87
2023/01/19 06:59:01;;;;;;;11.85;1.52;;;2.50;99.90;;;;;;5154762;27;20066;-86
2023/01/19 07:01:34;;;;;;;10.80;1.50;;;3.40;99.90;;;;;;5144487;27;20111;-94
2023/01/19 07:04:02;;;;;;;16.23;1.75;;;2.70;99.90;;;;;;5166630;27;20046;-91
2023/01/19 07:06:28;;;;;;;11.18;1.00;;;2.30;99.90;;;;;;5130849;27;20106;-95
2023/01/19 07:08:53;;;;;;;11.38;1.02;;;3.30;99.90;;;;;;5148209;27;20047;-96
2023/01/19 07:11:19;;;;;;;10.63;1.17;;;3.70;99.90;;;;;;5150154;27;20103;-88
2023/01/19 07:13:50;;;;;;;12.70;1.30;;;3.60;99.90;;;;;;5110298;27;20436;-92
2023/01/19 07:16:17;;;;;;;20.45;2.92;;;3.50;99.90;;;;;;5124243;27;20497;-88
2023/01/19 07:18:42;;;;;;;12.27;1.40;;;3.70;99.90;;;;;;5117822;27;20047;-86
2023/01/19 07:21:08;;;;;;;21.77;3.25;;;3.80;99.90;;;;;;5110479;27;20067;-95
2023/01/19 07:23:34;;;;;;;8.20;1.15;;;3.70;99.90;;;;;;5128321;27;20039;-96
2023/01/19 07:26:00;;;;;;;18.52;2.30;;;3.70;99.90;;;;;;5127173;27;20050;-89
2023/01/19 07:28:31;;;;;;;16.83;2.25;;;4.00;99.90;;;;;;5107023;27;20108;-91
2023/01/19 07:30:59;;;;;;;18.50;1.75;;;2.90;99.90;;;;;;5109501;27;20030;-90
2023/01/19 07:33:36;;;;;;;9.45;1.58;;;3.00;99.90;;;;;;5143936;27;20042;-90
2023/01/19 07:36:08;;;;;;;8.93;1.83;;;4.40;99.90;;;;;;5124459;27;20042;-90
2023/01/19 07:38:34;;;;;;;17.00;1.88;;;3.20;99.90;;;;;;5119810;27;20103;-95
2023/01/19 07:41:07;;;;;;;15.18;1.80;;;3.20;99.90;;;;;;5108015;27;20477;-90
2023/01/19 07:43:33;;;;;;;12.50;1.48;;;3.30;99.90;;;;;;5110305;27;20043;-90
2023/01/19 07:46:01;;;;;;;18.55;1.73;;;4.50;99.90;;;;;;5125417;27;20208;-94
2023/01/19 07:48:30;;;;;;;12.82;1.67;;;4.00;99.90;;;;;;5109719;28;20072;-90
2023/01/19 07:51:07;;;;;;;10.75;1.80;;;4.30;99.90;;;;;;5138957;27;20057;-90
2023/01/19 07:53:33;;;;;;;18.17;2.90;;;4.20;99.90;;;;;;5102725;27;20132;-90
2023/01/19 07:56:11;;;;;;;20.88;2.53;;;4.40;99.90;;;;;;5108777;28;20043;-91
2023/01/19 07:58:38;;;;;;;15.55;2.65;;;4.10;99.90;;;;;;5117094;28;20130;-92
2023/01/19 08:01:08;;;;;;;12.95;1.77;;;4.10;99.90;;;;;;5134622;27;20420;-95
2023/01/19 08:03:34;;;;;;;26.00;2.60;;;3.20;99.90;;;;;;5131212;28;20584;-96
2023/01/19 08:06:01;;;;;;;21.33;2.00;;;4.10;99.90;;;;;;5112516;27;20042;-93
2023/01/19 08:08:29;;;;;;;18.50;2.40;;;3.80;99.90;;;;;;5122793;27;20401;-91
2023/01/19 08:10:54;;;;;;;17.45;1.63;;;4.50;99.90;;;;;;5140339;27;20146;-92
2023/01/19 08:13:23;;;;;;;22.00;2.20;;;4.20;99.90;;;;;;5136384;27;20098;-90
2023/01/19 08:15:55;;;;;;;15.32;1.85;;;4.20;99.90;;;;;;5138934;27;20081;-90
2023/01/19 08:18:25;;;;;;;17.52;1.88;;;3.80;99.90;;;;;;5108477;28;20122;-92
2023/01/19 08:20:51;;;;;;;17.08;2.05;;;3.30;99.90;;;;;;5105868;28;20050;-91
2023/01/19 08:23:18;;;;;;;18.45;2.10;;;4.50;99.90;;;;;;5105448;28;20043;-94
2023/01/19 08:25:44;;;;;;;21.88;2.58;;;4.50;99.90;;;;;;5104499;28;20217;-92
2023/01/19 08:28:13;;;;;;;19.85;2.05;;;4.10;99.90;;;;;;5122117;28;20054;-93
2023/01/19 08:30:42;;;;;;;16.58;2.13;;;3.70;99.90;;;;;;5117290;28;20085;-86
2023/01/19 08:33:08;;;;;;;24.55;2.53;;;4.10;99.90;;;;;;5109064;28;20043;-94
2023/01/19 08:35:38;;;;;;;20.13;2.40;;;4.00;99.90;;;;;;5139904;28;20054;-94
2023/01/19 08:38:05;;;;;;;17.13;2.25;;;3.90;99.90;;;;;;5118753;28;20103;-94
2023/01/19 08:40:33;;;;;;;14.77;2.17;;;4.50;99.90;;;;;;5133610;28;20054;-92
2023/01/19 08:43:04;;;;;;;14.77;2.10;;;3.70;99.90;;;;;;5102588;27;20086;-88
2023/01/19 08:45:30;;;;;;;20.30;2.10;;;3.20;99.90;;;;;;5115847;28;20613;-91
2023/01/19 08:47:58;;;;;;;14.93;1.95;;;3.40;99.90;;;;;;5100167;28;20047;-87
2023/01/19 08:50:28;;;;;;;13.95;2.00;;;4.20;99.90;;;;;;5115752;28;20497;-86
2023/01/19 08:52:59;;;;;;;16.27;2.13;;;3.70;99.90;;;;;;5099743;28;20055;-91
2023/01/19 08:55:26;;;;;;;19.77;2.55;;;3.80;99.90;;;;;;5118996;27;20053;-93
2023/01/19 08:57:53;;;;;;;18.90;2.40;;;4.30;99.90;;;;;;5120945;27;20038;-89
2023/01/19 09:00:24;;;;;;;24.63;2.70;;;4.10;99.90;;;;;;5119403;27;20522;-86
2023/01/19 09:02:56;;;;;;;20.75;2.17;;;3.10;99.90;;;;;;5113874;28;20046;-92
2023/01/19 09:05:28;;;;;;;24.58;2.75;;;3.10;99.90;;;;;;5113241;28;20052;-95
2023/01/19 09:07:59;;;;;;;17.15;2.58;;;3.10;99.90;;;;;;5123034;28;20047;-95
2023/01/19 09:10:27;;;;;;;22.25;3.85;;;2.50;99.90;;;;;;5120970;27;20202;-91
2023/01/19 09:12:56;;;;;;;17.80;2.08;;;4.30;99.90;;;;;;5122414;27;20046;-90
2023/01/19 09:15:22;;;;;;;22.52;2.60;;;4.40;99.90;;;;;;5101793;27;20046;-95
2023/01/19 09:17:50;;;;;;;29.67;2.65;;;4.20;99.90;;;;;;5118075;27;20045;-87
2023/01/19 09:20:22;;;;;;;17.30;2.38;;;4.30;99.90;;;;;;5117018;27;20043;-94
2023/01/19 09:22:48;;;;;;;19.13;2.80;;;3.80;99.90;;;;;;5104695;27;20050;-92
2023/01/19 09:25:14;;;;;;;15.25;2.95;;;3.80;99.90;;;;;;5118367;27;20039;-91
2023/01/19 09:27:39;;;;;;;22.95;2.47;;;3.10;99.90;;;;;;5117472;27;20390;-93
2023/01/19 09:30:09;;;;;;;25.65;2.63;;;3.10;99.90;;;;;;5116652;27;20043;-94
2023/01/19 09:32:34;;;;;;;21.50;2.65;;;3.20;99.90;;;;;;5101711;27;20082;-88
2023/01/19 09:35:03;;;;;;;20.67;2.17;;;4.40;99.90;;;;;;5100928;27;20070;-92
2023/01/19 09:37:38;;;;;;;21.35;2.33;;;3.30;99.90;;;;;;5101274;27;20077;-89
2023/01/19 09:40:04;;;;;;;;;;;3.90;99.90;;;;;;5106374;27;20519;-90
2023/01/19 09:42:37;;;;;;;14.27;2.50;;;3.60;99.90;;;;;;5120449;27;20286;-87
2023/01/19 09:45:14;;;;;;;12.15;1.58;;;2.90;99.90;;;;;;5120176;27;20047;-92
2023/01/19 09:47:40;;;;;;;18.67;2.47;;;3.70;99.90;;;;;;5100390;27;20046;-90
2023/01/19 09:50:35;;;;;;;14.02;1.88;;;4.00;99.90;;;;;;5117364;27;20512;-92
2023/01/19 09:53:12;;;;;;;13.82;1.88;;;4.00;99.90;;;;;;5102346;27;20083;-91
2023/01/19 09:55:42;;;;;;;15.05;1.88;;;5.20;99.90;;;;;;5119203;27;20092;-88
2023/01/19 09:58:17;;;;;;;15.98;2.25;;;4.20;99.90;;;;;;5101958;27;20075;-89
2023/01/19 10:01:01;;;;;;;13.90;1.85;;;5.50;99.90;;;;;;5102742;27;20500;-88
2023/01/19 10:03:27;;;;;;;14.18;2.05;;;5.50;99.90;;;;;;5118557;27;20035;-91
2023/01/19 10:06:06;;;;;;;7.95;1.20;;;4.30;99.90;;;;;;5116795;27;20139;-93
2023/01/19 10:08:59;;;;;;;11.50;1.25;;;4.40;99.90;;;;;;5116938;27;20039;-93
2023/01/19 10:12:09;;;;;;;10.05;1.30;;;5.50;99.90;;;;;;5100992;27;20084;-86
2023/01/19 10:14:41;;;;;;;15.43;1.40;;;4.50;99.90;;;;;;5117070;27;20079;-89
2023/01/19 10:17:32;;;;;;;21.80;2.15;;;4.60;99.90;;;;;;5116570;27;20087;-94
2023/01/19 10:20:02;;;;;;;18.20;2.10;;;5.00;99.90;;;;;;5100752;27;20047;-91
2023/01/19 10:22:28;;;;;;;9.70;1.73;;;6.00;99.90;;;;;;5098942;27;20074;-91
2023/01/19 10:24:57;;;;;;;8.35;1.58;;;5.20;99.90;;;;;;5098980;27;20078;-89
2023/01/19 10:27:27;;;;;;;14.18;1.42;;;6.20;99.90;;;;;;5100253;27;20082;-93
2023/01/19 10:29:54;;;;;;;10.43;1.33;;;6.10;99.90;;;;;;5117183;27;20085;-89
2023/01/19 10:32:25;;;;;;;19.17;2.00;;;5.50;99.90;;;;;;5116626;27;20131;-87
2023/01/19 10:34:54;;;;;;;13.23;1.75;;;5.70;99.90;;;;;;5100792;27;20095;-91
2023/01/19 10:37:38;;;;;;;10.63;1.95;;;6.20;99.90;;;;;;5117033;27;20061;-89
2023/01/19 10:40:09;;;;;;;12.20;1.92;;;5.30;99.90;;;;;;5118225;27;20058;-94
2023/01/19 10:42:37;;;;;;;10.13;1.23;;;6.50;99.90;;;;;;5116704;27;20042;-90
2023/01/19 10:45:30;;;;;;;13.23;1.45;;;6.20;99.90;;;;;;5097942;27;20047;-89
2023/01/19 10:48:07;;;;;;;13.38;1.15;;;4.60;99.90;;;;;;5098702;27;20100;-90
2023/01/19 10:50:38;;;;;;;9.50;1.15;;;5.50;99.90;;;;;;5115081;27;20082;-90
2023/01/19 10:53:08;;;;;;;16.70;1.52;;;6.70;99.90;;;;;;5097374;27;20799;-91
2023/01/19 10:55:42;;;;;;;9.40;1.52;;;6.70;99.90;;;;;;5115600;27;20043;-91
2023/01/19 10:59:02;;;;;;;15.63;2.07;;;5.40;99.90;;;;;;5098467;27;20122;-92
2023/01/19 11:01:29;;;;;;;22.13;2.20;;;5.90;99.90;;;;;;5114221;27;20108;-88
2023/01/19 11:04:04;;;;;;;13.77;1.95;;;6.90;99.90;;;;;;5114516;27;20053;-89
2023/01/19 11:07:16;;;;;;;12.13;1.50;;;5.90;99.90;;;;;;5114835;27;20469;-89
2023/01/19 11:10:16;;;;;;;17.45;2.22;;;6.10;99.90;;;;;;4997001;28;20060;-91
2023/01/19 11:13:02;;;;;;;11.13;1.50;;;6.10;99.90;;;;;;5002301;28;20076;-88
2023/01/19 11:15:43;;;;;;;14.43;2.00;;;6.20;99.90;;;;;;5017691;28;20128;-93
2023/01/19 11:19:13;;;;;;;;;;;;;;;;;;;;;
2023/01/19 11:22:36;;;;;;;8.68;2.13;;;6.20;99.90;;;;;;4927029;29;20062;-90
2023/01/19 11:25:50;;;;;;;9.27;1.80;;;6.30;99.90;;;;;;4913175;29;20575;-89
2023/01/19 11:29:03;;;;;;;17.30;1.88;;;7.00;99.90;;;;;;4882767;29;20071;-89
2023/01/19 11:31:56;;;;;;;13.53;1.70;;;6.40;99.90;;;;;;4871200;29;20105;-90
2023/01/19 11:34:31;;;;;;;10.68;1.35;;;7.60;99.90;;;;;;4877309;29;20069;-90
2023/01/19 11:37:36;;;;;;;;;;;;;;;;;;;;;
2023/01/19 11:40:04;;;;;;;9.38;1.42;;;6.30;99.90;;;;;;4925966;29;20084;-92
2023/01/19 11:42:40;;;;;;;8.68;1.30;;;7.30;99.90;;;;;;4955457;29;20063;-95
2023/01/19 11:45:22;;;;;;;12.20;1.33;;;7.30;99.90;;;;;;4938982;29;20047;-94
2023/01/19 11:48:12;;;;;;;;;;;;;;;;;;;;;
2023/01/19 11:51:01;;;;;;;13.10;1.38;;;6.10;99.90;;;;;;4954464;29;20075;-90
2023/01/19 11:53:52;;;;;;;12.18;1.73;;;7.50;99.90;;;;;;4989578;28;20148;-90
2023/01/19 11:56:33;;;;;;;10.18;1.60;;;6.70;99.90;;;;;;4994382;28;20140;-91
2023/01/19 11:59:35;;;;;;;8.35;1.08;;;6.60;99.90;;;;;;4994622;28;20058;-91
2023/01/19 12:02:38;;;;;;;5.63;1.10;;;5.90;99.90;;;;;;5001247;28;20167;-90
2023/01/19 12:05:40;;;;;;;7.03;1.52;;;7.60;99.90;;;;;;5001242;28;20058;-93
2023/01/19 12:08:19;;;;;;;10.75;1.63;;;6.70;99.90;;;;;;5053186;28;20059;-90
2023/01/19 12:10:51;;;;;;;7.95;1.00;;;5.90;99.90;;;;;;5056843;28;20056;-89
2023/01/19 12:13:39;;;;;;;8.88;1.20;;;8.00;99.90;;;;;;5056437;28;20035;-92
2023/01/19 12:16:36;;;;;;;16.98;1.88;;;7.70;99.90;;;;;;5073166;28;20063;-91
2023/01/19 12:22:36;;;;;;;6.00;1.05;;;6.30;99.90;;;;;;4472528;27;18637086;-89
2023/01/19 12:25:50;;;;;;;9.27;1.25;;;7.50;99.90;;;;;;5090497;28;20052;-89
2023/01/19 12:28:59;;;;;;;10.35;1.10;;;5.50;99.90;;;;;;4974491;28;20136;-89
2023/01/19 12:31:27;;;;;;;7.03;1.23;;;6.40;99.90;;;;;;4975257;28;20516;-88
2023/01/19 12:34:43;;;;;;;7.40;0.68;;;6.40;99.90;;;;;;4974070;28;20038;-92
2023/01/19 12:37:39;;;;;;;9.70;0.80;;;6.50;99.90;;;;;;4978955;28;20084;-92
2023/01/19 12:40:44;;;;;;;2.72;0.55;;;7.60;99.90;;;;;;5002332;28;20554;-88
2023/01/19 12:43:59;;;;;;;;;;;;;;;;;;;;;
2023/01/19 12:47:02;;;;;;;8.50;0.80;;;6.10;99.90;;;;;;5003828;28;20525;-90
2023/01/19 12:49:51;;;;;;;6.78;1.00;;;6.10;99.90;;;;;;4975989;28;20054;-93
2023/01/19 12:52:22;;;;;;;7.03;0.80;;;7.00;99.90;;;;;;4988098;28;20065;-90
2023/01/19 12:55:30;;;;;;;6.40;0.90;;;6.60;99.90;;;;;;4955797;28;20540;-92
2023/01/19 12:58:26;;;;;;;6.35;0.80;;;6.60;99.90;;;;;;4962818;28;20063;-91
2023/01/19 13:01:35;;;;;;;12.70;1.83;;;5.60;99.90;;;;;;4971519;28;20117;-93
2023/01/19 13:04:25;;;;;;;9.65;1.33;;;6.30;99.90;;;;;;4959912;28;20582;-93
2023/01/19 13:07:16;;;;;;;4.57;1.05;;;6.80;99.90;;;;;;4993290;28;20054;-93
2023/01/19 13:09:55;;;;;;;3.72;0.93;;;7.00;99.90;;;;;;4974306;28;20054;-91
2023/01/19 13:12:25;;;;;;;6.03;1.27;;;6.60;99.90;;;;;;4934539;28;20091;-88
2023/01/19 13:15:34;;;;;;;9.68;1.10;;;7.60;99.90;;;;;;4973790;28;21603;-92
2023/01/19 13:18:03;;;;;;;5.95;0.77;;;7.20;99.90;;;;;;4982080;28;20152;-87
2023/01/19 13:20:47;;;;;;;9.77;1.23;;;6.30;99.90;;;;;;4944137;28;20522;-88
2023/01/19 13:23:29;;;;;;;11.88;1.67;;;7.40;99.90;;;;;;4963202;28;20050;-91
2023/01/19 13:26:03;;;;;;;18.75;1.30;;;6.50;99.90;;;;;;4947710;28;20541;-89
2023/01/19 13:28:42;;;;;;;12.18;1.00;;;7.70;99.90;;;;;;4965369;28;20121;-88
2023/01/19 13:31:12;;;;;;;6.63;0.75;;;6.70;99.90;;;;;;4962700;28;20042;-90
2023/01/19 13:33:55;;;;;;;6.32;1.23;;;6.10;99.90;;;;;;4937406;28;20097;-88
2023/01/19 13:36:36;;;;;;;10.48;1.08;;;6.60;99.90;;;;;;4963788;28;20117;-87
2023/01/19 13:39:13;;;;;;;11.77;1.45;;;6.30;99.90;;;;;;4970464;28;20101;-87
2023/01/19 13:41:49;;;;;;;9.23;1.10;;;7.30;99.90;;;;;;4967959;28;20093;-90
2023/01/19 13:44:51;;;;;;;8.60;1.33;;;5.90;99.90;;;;;;4986241;28;20529;-89
2023/01/19 13:47:37;;;;;;;9.82;1.60;;;5.70;99.90;;;;;;4987792;28;20500;-88
2023/01/19 13:50:19;;;;;;;4.28;0.85;;;5.60;99.90;;;;;;4998017;28;20061;-90